createdAt,value
2018-04-13T00:00:58.403Z,10.1
2018-04-13T00:02:05.614Z,10
2018-04-13T00:03:12.828Z,10
2018-04-13T00:04:20.031Z,10
2018-04-13T00:05:27.231Z,10.1
2018-04-13T00:06:34.437Z,10.1
2018-04-13T00:07:41.641Z,10.1
2018-04-13T00:08:48.580Z,10
2018-04-13T00:09:55.789Z,10
2018-04-13T00:11:02.997Z,10
2018-04-13T00:12:10.200Z,10
2018-04-13T00:13:17.133Z,10
2018-04-13T00:14:24.343Z,10
2018-04-13T00:15:31.542Z,10
2018-04-13T00:16:38.964Z,10
2018-04-13T00:17:46.186Z,10
2018-04-13T00:18:53.400Z,10
2018-04-13T00:20:00.346Z,10
2018-04-13T00:21:07.700Z,10.1
2018-04-13T00:22:14.664Z,10.3
2018-04-13T00:23:21.630Z,10.5
2018-04-13T00:24:28.581Z,10.7
2018-04-13T00:25:35.787Z,10.9
2018-04-13T00:26:42.732Z,11
2018-04-13T00:27:49.688Z,11.1
2018-04-13T00:28:56.898Z,11.3
2018-04-13T00:30:04.119Z,11.4
2018-04-13T00:31:11.329Z,11.6
2018-04-13T00:32:18.533Z,11.8
2018-04-13T00:33:25.745Z,11.8
2018-04-13T00:34:32.952Z,11.8
2018-04-13T00:35:40.157Z,11.8
2018-04-13T00:36:47.359Z,11.9
2018-04-13T00:37:54.562Z,12
2018-04-13T00:39:01.778Z,12.1
2018-04-13T00:40:09.002Z,12
2018-04-13T00:41:16.212Z,12
2018-04-13T00:42:23.394Z,11.9
2018-04-13T00:43:30.640Z,11.9
2018-04-13T00:44:38.087Z,11.8
2018-04-13T00:45:45.312Z,11.9
2018-04-13T00:46:52.680Z,11.8
2018-04-13T00:47:59.886Z,11.8
2018-04-13T00:49:07.138Z,11.7
2018-04-13T00:50:14.342Z,11.6
2018-04-13T00:51:21.560Z,11.5
2018-04-13T00:52:28.771Z,11.4
2018-04-13T00:53:35.973Z,11.4
2018-04-13T00:54:43.186Z,11.4
2018-04-13T00:55:50.395Z,11.4
2018-04-13T00:56:57.625Z,11.4
2018-04-13T00:58:04.833Z,11.3
2018-04-13T00:59:12.042Z,11.3
2018-04-13T01:00:19.453Z,11.3
2018-04-13T01:01:26.653Z,11.3
2018-04-13T01:02:33.877Z,11.3
2018-04-13T01:03:40.807Z,11.4
2018-04-13T01:04:48.029Z,11.3
2018-04-13T01:05:54.966Z,11.4
2018-04-13T01:07:01.624Z,11.4
2018-04-13T01:08:08.834Z,11.5
2018-04-13T01:09:16.036Z,11.6
2018-04-13T01:10:23.241Z,11.7
2018-04-13T01:11:30.452Z,11.8
2018-04-13T01:12:37.659Z,11.8
2018-04-13T01:13:44.867Z,11.7
2018-04-13T01:14:52.079Z,11.6
2018-04-13T01:15:59.005Z,11.4
2018-04-13T01:17:06.212Z,11.4
2018-04-13T01:18:13.416Z,11.3
2018-04-13T01:19:20.852Z,11.3
2018-04-13T01:20:28.053Z,11.2
2018-04-13T01:21:35.261Z,11.2
2018-04-13T01:22:42.184Z,11.2
2018-04-13T01:23:49.392Z,11.2
2018-04-13T01:24:56.323Z,11.3
2018-04-13T01:26:03.535Z,11.3
2018-04-13T01:27:10.740Z,11.3
2018-04-13T01:28:17.953Z,11.3
2018-04-13T01:29:24.878Z,11.3
2018-04-13T01:30:32.087Z,11.2
2018-04-13T01:31:39.297Z,11.2
2018-04-13T01:32:46.513Z,11.1
2018-04-13T01:33:53.719Z,11.1
2018-04-13T01:35:00.940Z,11.1
2018-04-13T01:36:08.152Z,11.1
2018-04-13T01:37:15.100Z,11
2018-04-13T01:38:22.313Z,11
2018-04-13T01:39:29.522Z,11
2018-04-13T01:40:36.731Z,11
2018-04-13T01:41:43.951Z,11
2018-04-13T01:42:51.164Z,10.9
2018-04-13T01:43:58.381Z,10.9
2018-04-13T01:45:05.596Z,10.9
2018-04-13T01:46:12.818Z,10.9
2018-04-13T01:47:20.032Z,10.9
2018-04-13T01:48:27.240Z,10.9
2018-04-13T01:49:34.455Z,10.8
2018-04-13T01:50:41.668Z,10.8
2018-04-13T01:51:48.875Z,10.8
2018-04-13T01:52:56.095Z,10.8
2018-04-13T01:54:03.300Z,10.8
2018-04-13T01:55:10.506Z,10.9
2018-04-13T01:56:17.707Z,10.9
2018-04-13T01:57:24.907Z,10.9
2018-04-13T01:58:32.109Z,10.9
2018-04-13T01:59:39.315Z,10.9
2018-04-13T02:00:46.247Z,10.8
2018-04-13T02:01:53.426Z,10.8
2018-04-13T02:03:00.394Z,10.8
2018-04-13T02:04:07.829Z,10.8
2018-04-13T02:05:14.767Z,10.8
2018-04-13T02:06:21.969Z,10.8
2018-04-13T02:07:29.177Z,10.8
2018-04-13T02:08:36.405Z,10.8
2018-04-13T02:09:43.335Z,10.8
2018-04-13T02:10:50.549Z,10.8
2018-04-13T02:11:57.753Z,10.8
2018-04-13T02:13:04.986Z,10.7
2018-04-13T02:14:12.188Z,10.7
2018-04-13T02:15:19.410Z,10.7
2018-04-13T02:16:26.620Z,10.8
2018-04-13T02:17:33.833Z,10.8
2018-04-13T02:18:41.044Z,10.8
2018-04-13T02:19:48.247Z,10.8
2018-04-13T02:20:55.452Z,10.8
2018-04-13T02:22:02.661Z,10.8
2018-04-13T02:23:09.911Z,10.9
2018-04-13T02:24:17.148Z,10.9
2018-04-13T02:25:24.389Z,10.9
2018-04-13T02:26:31.868Z,10.9
2018-04-13T02:27:39.071Z,10.9
2018-04-13T02:28:46.277Z,10.9
2018-04-13T02:29:53.499Z,10.9
2018-04-13T02:31:00.938Z,11
2018-04-13T02:32:08.144Z,11
2018-04-13T02:33:15.081Z,11.1
2018-04-13T02:34:22.577Z,11.1
2018-04-13T02:35:30.212Z,11.2
2018-04-13T02:36:37.448Z,11.2
2018-04-13T02:37:44.707Z,11.2
2018-04-13T02:38:51.917Z,11.1
2018-04-13T02:39:58.884Z,11.1
2018-04-13T02:41:06.085Z,11
2018-04-13T02:42:13.325Z,11.1
2018-04-13T02:43:20.544Z,11.1
2018-04-13T02:44:27.755Z,11
2018-04-13T02:45:34.997Z,11
2018-04-13T02:46:42.450Z,11
2018-04-13T02:47:49.668Z,11
2018-04-13T02:48:56.620Z,11
2018-04-13T02:50:03.859Z,11
2018-04-13T02:51:10.774Z,11
2018-04-13T02:52:18.013Z,11
2018-04-13T02:53:25.215Z,11
2018-04-13T02:54:32.424Z,11
2018-04-13T02:55:39.703Z,11
2018-04-13T02:56:46.913Z,11
2018-04-13T02:57:54.143Z,11
2018-04-13T02:59:01.352Z,10.9
2018-04-13T03:00:08.780Z,10.9
2018-04-13T03:01:15.992Z,10.9
2018-04-13T03:02:23.437Z,10.8
2018-04-13T03:03:30.638Z,10.8
2018-04-13T03:04:38.084Z,10.9
2018-04-13T03:05:45.295Z,10.9
2018-04-13T03:06:52.498Z,10.9
2018-04-13T03:07:59.705Z,10.9
2018-04-13T03:09:06.907Z,10.9
2018-04-13T03:10:14.114Z,10.9
2018-04-13T03:11:21.326Z,10.9
2018-04-13T03:12:28.540Z,11
2018-04-13T03:13:35.924Z,11
2018-04-13T03:14:43.134Z,11
2018-04-13T03:15:50.343Z,11.1
2018-04-13T03:16:57.550Z,11.2
2018-04-13T03:18:04.496Z,11.2
2018-04-13T03:19:11.701Z,11.2
2018-04-13T03:20:18.665Z,11.3
2018-04-13T03:21:25.591Z,11.3
2018-04-13T03:22:32.791Z,11.3
2018-04-13T03:23:40.006Z,11.3
2018-04-13T03:24:47.229Z,11.3
2018-04-13T03:25:54.444Z,11.3
2018-04-13T03:27:01.650Z,11.2
2018-04-13T03:28:08.855Z,11.2
2018-04-13T03:29:16.058Z,11.1
2018-04-13T03:30:23.260Z,11.1
2018-04-13T03:31:30.208Z,11.1
2018-04-13T03:32:37.417Z,11.1
2018-04-13T03:33:44.346Z,11
2018-04-13T03:34:51.551Z,11
2018-04-13T03:35:58.755Z,11
2018-04-13T03:37:05.967Z,11
2018-04-13T03:38:13.190Z,10.9
2018-04-13T03:39:20.424Z,10.9
2018-04-13T03:40:27.614Z,10.9
2018-04-13T03:41:34.826Z,10.9
2018-04-13T03:42:41.772Z,10.9
2018-04-13T03:43:48.987Z,10.9
2018-04-13T03:44:56.191Z,10.9
2018-04-13T03:46:03.398Z,10.8
2018-04-13T03:47:10.698Z,10.8
2018-04-13T03:48:17.807Z,10.8
2018-04-13T03:49:25.020Z,10.8
2018-04-13T03:50:31.987Z,10.8
2018-04-13T03:51:39.215Z,10.8
2018-04-13T03:52:46.439Z,10.8
2018-04-13T03:53:53.655Z,10.8
2018-04-13T03:55:00.866Z,10.8
2018-04-13T03:56:08.074Z,10.8
2018-04-13T03:57:15.275Z,10.7
2018-04-13T03:58:22.500Z,10.8
2018-04-13T03:59:29.704Z,10.8
2018-04-13T04:00:36.632Z,10.9
2018-04-13T04:01:43.837Z,11.1
2018-04-13T04:02:50.779Z,11.2
2018-04-13T04:03:57.706Z,11.2
2018-04-13T04:05:04.910Z,11.2
2018-04-13T04:06:12.108Z,11.2
2018-04-13T04:07:18.774Z,11.2
2018-04-13T04:08:25.984Z,11.1
2018-04-13T04:09:33.190Z,11.2
2018-04-13T04:10:40.401Z,11.2
2018-04-13T04:11:47.605Z,11.2
2018-04-13T04:12:54.825Z,11.2
2018-04-13T04:14:02.028Z,11.2
2018-04-13T04:15:09.235Z,11.3
2018-04-13T04:16:16.709Z,11.2
2018-04-13T04:17:23.621Z,11.2
2018-04-13T04:18:30.831Z,11.2
2018-04-13T04:19:38.037Z,11.2
2018-04-13T04:20:45.237Z,11.2
2018-04-13T04:21:52.441Z,11.2
2018-04-13T04:22:59.645Z,11.2
2018-04-13T04:24:06.662Z,11.1
2018-04-13T04:25:13.927Z,11.1
2018-04-13T04:26:21.134Z,11.2
2018-04-13T04:27:28.335Z,11.2
2018-04-13T04:28:35.552Z,11.2
2018-04-13T04:29:42.199Z,11.2
2018-04-13T04:30:49.403Z,11.3
2018-04-13T04:31:56.602Z,11.3
2018-04-13T04:33:03.808Z,11.3
2018-04-13T04:34:11.060Z,11.2
2018-04-13T04:35:18.285Z,11.2
2018-04-13T04:36:25.523Z,11.2
2018-04-13T04:37:32.722Z,11.2
2018-04-13T04:38:40.144Z,11.2
2018-04-13T04:39:47.352Z,11.2
2018-04-13T04:40:54.579Z,11.2
2018-04-13T04:42:01.792Z,11.2
2018-04-13T04:43:08.730Z,11.2
2018-04-13T04:44:15.943Z,11.1
2018-04-13T04:45:22.875Z,11.2
2018-04-13T04:46:30.079Z,11.3
2018-04-13T04:47:37.295Z,11.3
2018-04-13T04:48:44.505Z,11.2
2018-04-13T04:49:51.457Z,11.2
2018-04-13T04:50:58.664Z,11.1
2018-04-13T04:52:05.868Z,11.1
2018-04-13T04:53:13.078Z,11.2
2018-04-13T04:54:20.285Z,11.3
2018-04-13T04:55:27.499Z,11.4
2018-04-13T04:56:34.732Z,11.5
2018-04-13T04:57:41.947Z,11.6
2018-04-13T04:58:49.183Z,11.5
2018-04-13T04:59:56.387Z,11.5
2018-04-13T05:01:03.600Z,11.5
2018-04-13T05:02:10.805Z,11.5
2018-04-13T05:03:18.023Z,11.5
2018-04-13T05:04:24.950Z,11.5
2018-04-13T05:05:32.169Z,11.4
2018-04-13T05:06:39.107Z,11.4
2018-04-13T05:07:46.313Z,11.3
2018-04-13T05:08:53.521Z,11.3
2018-04-13T05:10:00.738Z,11.2
2018-04-13T05:11:07.945Z,11.2
2018-04-13T05:12:15.152Z,11.2
2018-04-13T05:13:36.751Z,11.2
2018-04-13T05:14:43.958Z,11.2
2018-04-13T05:15:51.171Z,11.3
2018-04-13T05:16:58.422Z,11.3
2018-04-13T05:18:05.629Z,11.3
2018-04-13T05:19:12.831Z,11.3
2018-04-13T05:20:20.996Z,11.3
2018-04-13T05:21:28.199Z,11.3
2018-04-13T05:22:35.535Z,11.3
2018-04-13T05:23:42.819Z,11.3
2018-04-13T05:24:50.040Z,11.3
2018-04-13T05:25:57.256Z,11.3
2018-04-13T05:27:04.225Z,11.3
2018-04-13T05:28:11.434Z,11.3
2018-04-13T05:29:18.695Z,11.3
2018-04-13T05:30:26.041Z,11.4
2018-04-13T05:31:33.251Z,11.3
2018-04-13T05:32:40.673Z,11.3
2018-04-13T05:33:47.882Z,11.3
2018-04-13T05:34:55.087Z,11.3
2018-04-13T05:36:02.299Z,11.3
2018-04-13T05:37:09.706Z,11.3
2018-04-13T05:38:16.913Z,11.4
2018-04-13T05:39:24.128Z,11.3
2018-04-13T05:40:31.341Z,11.3
2018-04-13T05:41:38.551Z,11.3
2018-04-13T05:42:45.758Z,11.3
2018-04-13T05:43:52.697Z,11.3
2018-04-13T05:44:59.911Z,11.3
2018-04-13T05:46:06.897Z,11.3
2018-04-13T05:47:14.196Z,11.3
2018-04-13T05:48:21.404Z,11.3
2018-04-13T05:49:28.609Z,11.3
2018-04-13T05:50:35.828Z,11.3
2018-04-13T05:51:42.755Z,11.3
2018-04-13T05:52:49.982Z,11.2
2018-04-13T05:53:57.192Z,11.2
2018-04-13T05:55:04.406Z,11.2
2018-04-13T05:56:11.616Z,11.2
2018-04-13T05:57:18.821Z,11.2
2018-04-13T05:58:26.044Z,11.2
2018-04-13T05:59:33.256Z,11.3
2018-04-13T06:00:40.462Z,11.3
2018-04-13T06:01:47.672Z,11.3
2018-04-13T06:02:54.887Z,11.3
2018-04-13T06:04:02.096Z,11.3
2018-04-13T06:05:09.302Z,11.3
2018-04-13T06:06:16.515Z,11.3
2018-04-13T06:07:23.178Z,11.3
2018-04-13T06:08:30.404Z,11.3
2018-04-13T06:09:37.467Z,11.3
2018-04-13T06:10:44.689Z,11.3
2018-04-13T06:11:51.621Z,11.3
2018-04-13T06:12:58.839Z,11.2
2018-04-13T06:14:06.069Z,11.2
2018-04-13T06:15:13.290Z,11.2
2018-04-13T06:16:19.948Z,11.2
2018-04-13T06:17:26.882Z,11.2
2018-04-13T06:18:34.094Z,11.2
2018-04-13T06:19:41.306Z,11.3
2018-04-13T06:20:48.517Z,11.3
2018-04-13T06:21:55.725Z,11.3
2018-04-13T06:23:02.933Z,11.2
2018-04-13T06:24:09.598Z,11.2
2018-04-13T06:25:16.814Z,11.3
2018-04-13T06:26:24.024Z,11.3
2018-04-13T06:27:31.283Z,11.3
2018-04-13T06:28:38.482Z,11.3
2018-04-13T06:29:45.685Z,11.3
2018-04-13T06:30:52.901Z,11.3
2018-04-13T06:32:00.104Z,11.3
2018-04-13T06:33:07.316Z,11.3
2018-04-13T06:34:14.524Z,11.4
2018-04-13T06:35:21.469Z,11.4
2018-04-13T06:36:28.662Z,11.4
2018-04-13T06:37:35.867Z,11.5
2018-04-13T06:38:43.102Z,11.5
2018-04-13T06:39:50.313Z,11.5
2018-04-13T06:40:57.535Z,11.6
2018-04-13T06:42:04.744Z,11.5
2018-04-13T06:43:11.969Z,11.6
2018-04-13T06:44:19.178Z,11.6
2018-04-13T06:45:26.378Z,11.6
2018-04-13T06:46:33.588Z,11.6
2018-04-13T06:47:40.797Z,11.6
2018-04-13T06:48:47.796Z,11.6
2018-04-13T06:49:55.336Z,11.6
2018-04-13T06:51:02.540Z,11.6
2018-04-13T06:52:09.765Z,11.6
2018-04-13T06:53:16.970Z,11.6
2018-04-13T06:54:24.178Z,11.6
2018-04-13T06:55:31.387Z,11.7
2018-04-13T06:56:38.607Z,11.7
2018-04-13T06:57:45.867Z,11.8
2018-04-13T06:58:52.815Z,11.8
2018-04-13T07:00:00.025Z,11.9
2018-04-13T07:01:07.236Z,11.9
2018-04-13T07:02:14.448Z,11.9
2018-04-13T07:03:21.652Z,12
2018-04-13T07:04:28.870Z,12
2018-04-13T07:05:36.087Z,12
2018-04-13T07:06:43.293Z,12
2018-04-13T07:07:50.545Z,12.1
2018-04-13T07:08:57.752Z,12.1
2018-04-13T07:10:04.958Z,12.1
2018-04-13T07:11:12.169Z,12.1
2018-04-13T07:12:19.377Z,12.2
2018-04-13T07:13:26.587Z,12.2
2018-04-13T07:14:33.791Z,12.2
2018-04-13T07:15:40.999Z,12.2
2018-04-13T07:16:47.945Z,12.3
2018-04-13T07:17:55.165Z,12.4
2018-04-13T07:19:02.380Z,12.4
2018-04-13T07:20:09.582Z,12.4
2018-04-13T07:21:16.788Z,12.5
2018-04-13T07:22:24.008Z,12.5
2018-04-13T07:23:31.248Z,12.6
2018-04-13T07:24:38.452Z,12.6
2018-04-13T07:25:45.664Z,12.7
2018-04-13T07:26:52.887Z,12.7
2018-04-13T07:28:00.121Z,12.8
2018-04-13T07:29:07.326Z,12.8
2018-04-13T07:30:14.605Z,12.8
2018-04-13T07:31:21.907Z,12.8
2018-04-13T07:32:28.842Z,12.8
2018-04-13T07:33:36.043Z,12.9
2018-04-13T07:34:42.978Z,12.9
2018-04-13T07:35:50.204Z,13
2018-04-13T07:36:57.141Z,13.1
2018-04-13T07:38:04.371Z,13.1
2018-04-13T07:39:12.113Z,13.2
2018-04-13T07:40:19.057Z,13.2
2018-04-13T07:41:26.299Z,13.3
2018-04-13T07:42:33.547Z,13.5
2018-04-13T07:43:40.784Z,13.7
2018-04-13T07:44:47.986Z,13.8
2018-04-13T07:45:55.800Z,13.9
2018-04-13T07:47:02.460Z,13.8
2018-04-13T07:48:09.663Z,13.9
2018-04-13T07:49:17.145Z,13.9
2018-04-13T07:50:24.384Z,13.9
2018-04-13T07:51:31.360Z,14.1
2018-04-13T07:52:38.567Z,14.1
2018-04-13T07:53:45.489Z,14.2
2018-04-13T07:54:52.692Z,14.1
2018-04-13T07:55:59.907Z,14.2
2018-04-13T07:57:07.120Z,14.2
2018-04-13T07:58:14.059Z,14.1
2018-04-13T07:59:21.917Z,14
2018-04-13T08:00:29.135Z,14.1
2018-04-13T08:01:36.337Z,14
2018-04-13T08:02:43.570Z,14
2018-04-13T08:03:51.176Z,13.9
2018-04-13T08:04:58.384Z,13.9
2018-04-13T08:06:05.597Z,14
2018-04-13T08:07:12.822Z,14
2018-04-13T08:08:20.060Z,14.1
2018-04-13T08:09:27.268Z,13.9
2018-04-13T08:10:34.480Z,13.9
2018-04-13T08:11:41.632Z,13.9
2018-04-13T08:12:48.581Z,13.9
2018-04-13T08:13:55.576Z,13.8
2018-04-13T08:15:02.775Z,13.8
2018-04-13T08:16:09.981Z,13.7
2018-04-13T08:17:17.194Z,13.8
2018-04-13T08:18:24.397Z,13.7
2018-04-13T08:19:31.620Z,13.7
2018-04-13T08:20:38.830Z,13.7
2018-04-13T08:21:46.071Z,13.8
2018-04-13T08:22:53.271Z,13.9
2018-04-13T08:24:00.495Z,14
2018-04-13T08:25:07.708Z,14.1
2018-04-13T08:26:14.921Z,14.2
2018-04-13T08:27:22.135Z,14.2
2018-04-13T08:28:29.360Z,14.1
2018-04-13T08:29:36.601Z,14.1
2018-04-13T08:30:43.825Z,14
2018-04-13T08:31:50.861Z,13.9
2018-04-13T08:32:58.275Z,13.9
2018-04-13T08:34:05.289Z,13.8
2018-04-13T08:35:12.515Z,13.7
2018-04-13T08:36:19.820Z,13.6
2018-04-13T08:37:27.115Z,13.6
2018-04-13T08:38:34.328Z,13.3
2018-04-13T08:39:41.256Z,13.2
2018-04-13T08:40:48.468Z,13.2
2018-04-13T08:41:55.688Z,13.2
2018-04-13T08:43:02.883Z,13.2
2018-04-13T08:44:10.180Z,13.1
2018-04-13T08:45:17.414Z,13.1
2018-04-13T08:46:24.649Z,13
2018-04-13T08:47:31.857Z,13
2018-04-13T08:48:39.194Z,12.9
2018-04-13T08:49:46.683Z,12.9
2018-04-13T08:50:53.896Z,12.8
2018-04-13T08:52:01.108Z,12.8
2018-04-13T08:53:08.320Z,12.8
2018-04-13T08:54:15.518Z,12.9
2018-04-13T08:55:22.450Z,12.9
2018-04-13T08:56:29.373Z,12.8
2018-04-13T08:57:36.602Z,12.8
2018-04-13T08:58:43.815Z,12.7
2018-04-13T08:59:51.026Z,12.6
2018-04-13T09:00:58.006Z,12.6
2018-04-13T09:02:05.279Z,12.6
2018-04-13T09:03:12.503Z,12.6
2018-04-13T09:04:19.715Z,12.6
2018-04-13T09:05:26.991Z,12.5
2018-04-13T09:06:33.986Z,12.6
2018-04-13T09:07:41.305Z,12.6
2018-04-13T09:08:48.525Z,12.6
2018-04-13T09:09:55.751Z,12.5
2018-04-13T09:11:02.960Z,12.4
2018-04-13T09:12:10.131Z,12.5
2018-04-13T09:13:17.324Z,12.4
2018-04-13T09:14:24.558Z,12.4
2018-04-13T09:15:31.750Z,12.4
2018-04-13T09:16:38.953Z,12.4
2018-04-13T09:17:45.891Z,12.4
2018-04-13T09:18:53.108Z,12.4
2018-04-13T09:20:00.321Z,12.3
2018-04-13T09:21:07.536Z,12.3
2018-04-13T09:22:14.742Z,12.4
2018-04-13T09:23:21.953Z,12.3
2018-04-13T09:24:28.881Z,12.4
2018-04-13T09:25:36.088Z,12.4
2018-04-13T09:26:43.296Z,12.4
2018-04-13T09:27:50.508Z,12.4
2018-04-13T09:28:57.723Z,12.4
2018-04-13T09:30:04.954Z,12.4
2018-04-13T09:31:12.391Z,12.4
2018-04-13T09:32:19.599Z,12.4
2018-04-13T09:33:26.805Z,12.4
2018-04-13T09:34:34.005Z,12.4
2018-04-13T09:35:41.283Z,12.4
2018-04-13T09:36:48.563Z,12.4
2018-04-13T09:37:55.778Z,12.4
2018-04-13T09:39:02.989Z,12.4
2018-04-13T09:40:10.196Z,12.3
2018-04-13T09:41:16.862Z,12.4
2018-04-13T09:42:24.069Z,12.4
2018-04-13T09:43:31.291Z,12.3
2018-04-13T09:44:38.503Z,12.3
2018-04-13T09:45:45.702Z,12.2
2018-04-13T09:46:52.913Z,12.2
2018-04-13T09:48:00.115Z,12.2
2018-04-13T09:49:07.329Z,12.2
2018-04-13T09:50:14.530Z,12.2
2018-04-13T09:51:21.735Z,12.2
2018-04-13T09:52:28.942Z,12.1
2018-04-13T09:53:35.878Z,12.2
2018-04-13T09:54:43.081Z,12.2
2018-04-13T09:55:50.294Z,12.1
2018-04-13T09:56:57.522Z,12.1
2018-04-13T09:58:04.477Z,12.1
2018-04-13T09:59:11.703Z,12.1
2018-04-13T10:00:18.919Z,12.1
2018-04-13T10:01:25.855Z,12.1
2018-04-13T10:02:32.781Z,12.1
2018-04-13T10:03:39.990Z,12.2
2018-04-13T10:04:47.195Z,12.2
2018-04-13T10:05:54.402Z,12.2
2018-04-13T10:07:02.421Z,12.1
2018-04-13T10:08:09.673Z,12.1
2018-04-13T10:09:16.953Z,12.2
2018-04-13T10:10:23.905Z,12.2
2018-04-13T10:11:31.115Z,12.2
2018-04-13T10:12:38.322Z,12.2
2018-04-13T10:13:45.539Z,12.2
2018-04-13T10:14:52.745Z,12.2
2018-04-13T10:15:59.951Z,12.2
2018-04-13T10:17:07.154Z,12.2
2018-04-13T10:18:14.363Z,12.2
2018-04-13T10:19:21.575Z,12.2
2018-04-13T10:20:28.506Z,12.2
2018-04-13T10:21:35.450Z,12.2
2018-04-13T10:22:42.674Z,12.2
2018-04-13T10:23:49.867Z,12.2
2018-04-13T10:24:57.075Z,12.2
2018-04-13T10:26:04.286Z,12.2
2018-04-13T10:27:11.535Z,12.2
2018-04-13T10:28:18.741Z,12.2
2018-04-13T10:29:26.196Z,12.2
2018-04-13T10:30:33.397Z,12.2
2018-04-13T10:31:40.607Z,12.2
2018-04-13T10:32:47.814Z,12.2
2018-04-13T10:33:55.020Z,12.2
2018-04-13T10:35:02.229Z,12.2
2018-04-13T10:36:09.463Z,12.2
2018-04-13T10:37:16.665Z,12.2
2018-04-13T10:38:23.612Z,12.2
2018-04-13T10:39:30.820Z,12.2
2018-04-13T10:40:38.058Z,12.1
2018-04-13T10:41:45.267Z,12.1
2018-04-13T10:42:52.482Z,12.1
2018-04-13T10:43:59.409Z,12.1
2018-04-13T10:45:06.653Z,12.1
2018-04-13T10:46:13.856Z,12.1
2018-04-13T10:47:21.063Z,12.1
2018-04-13T10:48:27.998Z,12.1
2018-04-13T10:49:35.204Z,12
2018-04-13T10:50:42.411Z,11.9
2018-04-13T10:51:49.617Z,11.9
2018-04-13T10:52:56.562Z,11.9
2018-04-13T10:54:03.764Z,11.9
2018-04-13T10:55:10.982Z,11.9
2018-04-13T10:56:18.192Z,12
2018-04-13T10:57:25.398Z,12.1
2018-04-13T10:58:32.611Z,12.1
2018-04-13T10:59:39.818Z,12
2018-04-13T11:00:47.039Z,12.2
2018-04-13T11:01:54.245Z,12.1
2018-04-13T11:03:01.464Z,12.1
2018-04-13T11:04:08.672Z,12.1
2018-04-13T11:05:15.894Z,12.2
2018-04-13T11:06:22.819Z,12.2
2018-04-13T11:07:30.044Z,12.1
2018-04-13T11:08:36.980Z,12.2
2018-04-13T11:09:44.181Z,12.2
2018-04-13T11:10:51.398Z,12.3
2018-04-13T11:11:58.603Z,12.3
2018-04-13T11:13:05.821Z,12.2
2018-04-13T11:14:13.022Z,12.3
2018-04-13T11:15:19.964Z,12.3
2018-04-13T11:16:26.898Z,12.4
2018-04-13T11:17:34.116Z,12.4
2018-04-13T11:18:41.328Z,12.4
2018-04-13T11:19:48.539Z,12.4
2018-04-13T11:20:55.746Z,12.4
2018-04-13T11:22:02.950Z,12.3
2018-04-13T11:23:10.165Z,12.3
2018-04-13T11:24:17.101Z,12.3
2018-04-13T11:25:24.310Z,12.3
2018-04-13T11:26:31.522Z,12.4
2018-04-13T11:27:38.730Z,12.4
2018-04-13T11:28:45.954Z,12.4
2018-04-13T11:29:53.155Z,12.3
2018-04-13T11:31:00.361Z,12.3
2018-04-13T11:32:07.580Z,12.3
2018-04-13T11:33:14.788Z,12.3
2018-04-13T11:34:21.991Z,12.3
2018-04-13T11:35:29.216Z,12.3
2018-04-13T11:36:36.423Z,12.3
2018-04-13T11:37:43.632Z,12.3
2018-04-13T11:38:50.562Z,12.3
2018-04-13T11:39:57.764Z,12.2
2018-04-13T11:41:04.976Z,12.2
2018-04-13T11:42:12.188Z,12.2
2018-04-13T11:43:19.405Z,12.2
2018-04-13T11:44:26.654Z,12.1
2018-04-13T11:45:33.306Z,12.2
2018-04-13T11:46:40.529Z,12.2
2018-04-13T11:47:47.740Z,12.2
2018-04-13T11:48:54.956Z,12.2
2018-04-13T11:50:02.168Z,12.2
2018-04-13T11:51:09.105Z,12.3
2018-04-13T11:52:16.308Z,12.3
2018-04-13T11:53:23.244Z,12.3
2018-04-13T11:54:29.926Z,12.3
2018-04-13T11:55:37.156Z,12.3
2018-04-13T11:56:44.375Z,12.2
2018-04-13T11:57:51.596Z,12.2
2018-04-13T11:58:58.804Z,12.2
2018-04-13T12:00:05.736Z,12.2
2018-04-13T12:01:12.676Z,12.2
2018-04-13T12:02:19.882Z,12.2
2018-04-13T12:03:27.113Z,12.1
2018-04-13T12:04:34.320Z,12.1
2018-04-13T12:05:41.558Z,12.1
2018-04-13T12:06:48.797Z,12.1
2018-04-13T12:07:56.018Z,12.1
2018-04-13T12:09:03.231Z,12.3
2018-04-13T12:10:10.175Z,12.3
2018-04-13T12:11:17.394Z,12.2
2018-04-13T12:12:24.328Z,12.2
2018-04-13T12:13:31.534Z,12.2
2018-04-13T12:14:38.747Z,12.3
2018-04-13T12:15:46.009Z,12.2
2018-04-13T12:16:53.305Z,12.3
2018-04-13T12:18:00.524Z,12.3
2018-04-13T12:19:07.733Z,12.3
2018-04-13T12:20:14.948Z,12.3
2018-04-13T12:21:22.154Z,12.4
2018-04-13T12:22:29.364Z,12.4
2018-04-13T12:23:36.573Z,12.3
2018-04-13T12:24:43.518Z,12.3
2018-04-13T12:25:50.736Z,12.1
2018-04-13T12:26:57.934Z,12.2
2018-04-13T12:28:04.874Z,12.2
2018-04-13T12:29:12.107Z,12.2
2018-04-13T12:30:19.315Z,12.2
2018-04-13T12:31:26.527Z,12.2
2018-04-13T12:32:33.458Z,12.4
2018-04-13T12:33:40.673Z,12.4
2018-04-13T12:34:47.881Z,12.5
2018-04-13T12:35:55.088Z,12.6
2018-04-13T12:37:02.292Z,12.7
2018-04-13T12:38:09.508Z,12.7
2018-04-13T12:39:16.720Z,12.6
2018-04-13T12:40:23.668Z,12.5
2018-04-13T12:41:30.885Z,12.7
2018-04-13T12:42:38.132Z,12.7
2018-04-13T12:43:45.342Z,12.7
2018-04-13T12:44:52.557Z,12.7
2018-04-13T12:45:59.959Z,12.8
2018-04-13T12:47:07.170Z,12.7
2018-04-13T12:48:14.376Z,12.7
2018-04-13T12:49:21.312Z,12.7
2018-04-13T12:50:28.531Z,12.7
2018-04-13T12:51:35.771Z,12.7
2018-04-13T12:52:43.077Z,12.7
2018-04-13T12:53:50.452Z,12.6
2018-04-13T12:54:58.285Z,12.4
2018-04-13T12:56:06.655Z,12.4
2018-04-13T12:57:13.960Z,12.4
2018-04-13T12:58:21.164Z,12.3
2018-04-13T12:59:28.382Z,12.3
2018-04-13T13:00:35.324Z,12.3
2018-04-13T13:01:42.536Z,12.3
2018-04-13T13:02:49.750Z,12.2
2018-04-13T13:03:56.960Z,12.2
2018-04-13T13:05:04.194Z,12.1
2018-04-13T13:06:11.392Z,12.1
2018-04-13T13:07:18.630Z,12.1
2018-04-13T13:08:25.838Z,12.1
2018-04-13T13:09:33.053Z,12.1
2018-04-13T13:10:40.264Z,12
2018-04-13T13:11:47.214Z,12
2018-04-13T13:12:54.161Z,12.1
2018-04-13T13:14:01.411Z,12
2018-04-13T13:15:08.621Z,12
2018-04-13T13:16:15.842Z,12
2018-04-13T13:17:23.038Z,11.9
2018-04-13T13:18:29.987Z,11.9
2018-04-13T13:19:37.203Z,12
2018-04-13T13:20:44.421Z,12
2018-04-13T13:21:51.627Z,11.9
2018-04-13T13:22:58.833Z,11.9
2018-04-13T13:24:06.080Z,11.8
2018-04-13T13:25:13.283Z,11.8
2018-04-13T13:26:20.498Z,11.7
2018-04-13T13:27:27.451Z,11.7
2018-04-13T13:28:34.671Z,11.7
2018-04-13T13:29:41.611Z,11.6
2018-04-13T13:30:48.865Z,11.6
2018-04-13T13:31:56.169Z,11.6
2018-04-13T13:33:03.585Z,11.5
2018-04-13T13:34:10.811Z,11.4
2018-04-13T13:35:17.743Z,11.4
2018-04-13T13:36:24.954Z,11.4
2018-04-13T13:37:32.207Z,11.4
2018-04-13T13:38:39.419Z,11.3
2018-04-13T13:39:46.630Z,11.3
2018-04-13T13:40:53.862Z,11.4
2018-04-13T13:42:01.076Z,11.3
2018-04-13T13:43:08.010Z,11.3
2018-04-13T13:44:15.231Z,11.3
2018-04-13T13:45:22.162Z,11.2
2018-04-13T13:46:29.379Z,11.1
2018-04-13T13:47:36.588Z,11.2
2018-04-13T13:48:43.793Z,11.3
2018-04-13T13:49:50.727Z,11.3
2018-04-13T13:50:57.932Z,11.2
2018-04-13T13:52:05.150Z,11.2
2018-04-13T13:53:12.084Z,11.2
2018-04-13T13:54:19.297Z,11.1
2018-04-13T13:55:26.536Z,11.2
2018-04-13T13:56:33.747Z,11.2
2018-04-13T13:57:40.689Z,11.1
2018-04-13T13:58:47.901Z,11.1
2018-04-13T13:59:54.845Z,11.1
2018-04-13T14:01:01.797Z,11
2018-04-13T14:02:09.015Z,11
2018-04-13T14:03:16.229Z,11.1
2018-04-13T14:04:23.478Z,11
2018-04-13T14:05:30.690Z,11
2018-04-13T14:06:37.906Z,11
2018-04-13T14:07:45.128Z,11
2018-04-13T14:08:52.073Z,11
2018-04-13T14:09:59.282Z,11
2018-04-13T14:11:06.501Z,11
2018-04-13T14:12:13.432Z,11
2018-04-13T14:13:20.638Z,10.9
2018-04-13T14:14:27.854Z,10.9
2018-04-13T14:15:35.047Z,10.9
2018-04-13T14:16:42.401Z,10.9
2018-04-13T14:17:49.640Z,10.9
2018-04-13T14:18:56.853Z,10.9
2018-04-13T14:20:03.786Z,10.9
2018-04-13T14:21:11.001Z,10.9
2018-04-13T14:22:18.211Z,10.9
2018-04-13T14:23:25.163Z,10.8
2018-04-13T14:24:32.376Z,10.8
2018-04-13T14:25:39.607Z,10.7
2018-04-13T14:26:46.549Z,10.7
2018-04-13T14:27:53.781Z,10.7
2018-04-13T14:29:01.003Z,10.7
2018-04-13T14:30:08.209Z,10.7
2018-04-13T14:31:15.453Z,10.6
2018-04-13T14:32:37.065Z,10.7
2018-04-13T14:33:43.727Z,10.7
2018-04-13T14:34:50.944Z,10.7
2018-04-13T14:35:58.153Z,10.7
2018-04-13T14:37:05.372Z,10.6
2018-04-13T14:38:12.597Z,10.6
2018-04-13T14:39:19.546Z,10.5
2018-04-13T14:40:26.498Z,10.5
2018-04-13T14:41:33.719Z,10.5
2018-04-13T14:42:40.645Z,10.4
2018-04-13T14:43:47.848Z,10.5
2018-04-13T14:44:54.783Z,10.4
2018-04-13T14:46:01.991Z,10.4
2018-04-13T14:47:09.201Z,10.4
2018-04-13T14:48:16.409Z,10.4
2018-04-13T14:49:23.619Z,10.3
2018-04-13T14:50:30.823Z,10.3
2018-04-13T14:51:38.051Z,10.2
2018-04-13T14:52:45.269Z,10.2
2018-04-13T14:53:52.474Z,10.2
2018-04-13T14:54:59.692Z,10.2
2018-04-13T14:56:06.635Z,10.2
2018-04-13T14:57:13.847Z,10.1
2018-04-13T14:58:21.111Z,10.1
2018-04-13T14:59:28.327Z,10.1
2018-04-13T15:00:35.533Z,9.9